createdAt,value
2017-10-11T00:00:00.839Z,11.10
2017-10-11T00:02:30.012Z,12.97
2017-10-11T00:04:58.478Z,12.30
2017-10-11T00:07:27.315Z,12.90
2017-10-11T00:09:56.414Z,11.73
2017-10-11T00:12:24.896Z,14.17
2017-10-11T00:14:53.823Z,12.13
2017-10-11T00:17:23.311Z,13.33
2017-10-11T00:19:51.899Z,13.63
2017-10-11T00:22:20.975Z,13.37
2017-10-11T00:24:49.552Z,12.70
2017-10-11T00:27:18.147Z,14.33
2017-10-11T00:29:46.684Z,12.03
2017-10-11T00:32:16.635Z,12.60
2017-10-11T00:34:45.369Z,11.80
2017-10-11T00:37:14.671Z,10.20
2017-10-11T00:39:44.119Z,11.73
2017-10-11T00:42:13.111Z,12.30
2017-10-11T00:44:41.452Z,12.77
2017-10-11T00:47:09.922Z,12.23
2017-10-11T00:49:38.671Z,13.70
2017-10-11T00:52:07.053Z,12.33
2017-10-11T00:54:35.703Z,12.83
2017-10-11T00:57:05.404Z,11.83
2017-10-11T00:59:34.522Z,12.13
2017-10-11T01:02:03.495Z,11.87
2017-10-11T01:04:31.845Z,11.90
2017-10-11T01:07:01.426Z,12.00
2017-10-11T01:09:30.160Z,10.63
2017-10-11T01:11:59.047Z,11.50
2017-10-11T01:14:27.659Z,10.83
2017-10-11T01:16:56.101Z,10.70
2017-10-11T01:19:25.575Z,10.07
2017-10-11T01:21:54.951Z,11.30
2017-10-11T01:24:23.988Z,10.30
2017-10-11T01:26:52.982Z,10.17
2017-10-11T01:29:21.787Z,11.77
2017-10-11T01:31:51.399Z,9.17
2017-10-11T01:34:20.271Z,8.67
2017-10-11T01:36:49.382Z,10.97
2017-10-11T01:39:17.891Z,9.30
2017-10-11T01:41:46.679Z,9.53
2017-10-11T01:44:15.339Z,11.00
2017-10-11T01:46:44.568Z,9.83
2017-10-11T01:49:13.243Z,10.10
2017-10-11T01:51:41.628Z,10.00
2017-10-11T01:54:10.808Z,10.50
2017-10-11T01:56:39.830Z,8.87
2017-10-11T01:59:08.258Z,10.07
2017-10-11T02:01:37.023Z,10.03
2017-10-11T02:04:05.806Z,10.47
2017-10-11T02:06:34.355Z,10.20
2017-10-11T02:09:02.968Z,9.47
2017-10-11T02:11:31.559Z,11.90
2017-10-11T02:14:00.112Z,10.30
2017-10-11T02:16:29.134Z,9.63
2017-10-11T02:18:58.025Z,10.90
2017-10-11T02:21:26.712Z,12.10
2017-10-11T02:23:55.439Z,10.63
2017-10-11T02:26:25.027Z,10.77
2017-10-11T02:28:53.979Z,11.10
2017-10-11T02:31:22.423Z,11.00
2017-10-11T02:33:51.327Z,10.90
2017-10-11T02:36:20.264Z,11.97
2017-10-11T02:38:49.306Z,10.37
2017-10-11T02:41:18.027Z,10.80
2017-10-11T02:43:46.728Z,11.20
2017-10-11T02:46:15.091Z,12.50
2017-10-11T02:48:43.447Z,12.33
2017-10-11T02:51:11.909Z,11.83
2017-10-11T02:53:40.584Z,11.93
2017-10-11T02:56:10.067Z,12.80
2017-10-11T02:58:38.671Z,12.10
2017-10-11T03:01:08.124Z,10.83
2017-10-11T03:03:36.424Z,11.83
2017-10-11T03:06:04.835Z,11.30
2017-10-11T03:08:33.559Z,11.40
2017-10-11T03:11:02.431Z,12.20
2017-10-11T03:13:31.372Z,12.00
2017-10-11T03:16:00.071Z,12.80
2017-10-11T03:18:28.673Z,11.80
2017-10-11T03:20:57.531Z,11.10
2017-10-11T03:23:26.120Z,11.40
2017-10-11T03:25:54.763Z,12.53
2017-10-11T03:28:23.187Z,11.50
2017-10-11T03:30:51.521Z,10.60
2017-10-11T03:33:20.259Z,11.83
2017-10-11T03:35:50.015Z,12.80
2017-10-11T03:38:18.623Z,11.37
2017-10-11T03:40:47.661Z,12.10
2017-10-11T03:43:15.959Z,11.50
2017-10-11T03:45:45.147Z,12.13
2017-10-11T03:48:13.761Z,12.40
2017-10-11T03:50:42.290Z,12.53
2017-10-11T03:53:11.042Z,13.30
2017-10-11T03:55:39.409Z,13.20
2017-10-11T03:58:08.299Z,12.90
2017-10-11T04:00:38.606Z,11.40
2017-10-11T04:03:07.438Z,12.60
2017-10-11T04:05:35.983Z,12.60
2017-10-11T04:08:04.671Z,12.00
2017-10-11T04:10:33.132Z,11.53
2017-10-11T04:13:01.876Z,12.90
2017-10-11T04:15:30.889Z,11.90
2017-10-11T04:17:59.515Z,12.33
2017-10-11T04:20:28.577Z,13.13
2017-10-11T04:23:01.715Z,12.87
2017-10-11T04:25:30.511Z,12.60
2017-10-11T04:27:59.091Z,13.37
2017-10-11T04:30:27.779Z,13.17
2017-10-11T04:32:56.161Z,12.13
2017-10-11T04:35:24.763Z,14.40
2017-10-11T04:37:53.330Z,12.43
2017-10-11T04:40:22.111Z,11.20
2017-10-11T04:42:50.727Z,13.20
2017-10-11T04:45:19.132Z,12.90
2017-10-11T04:47:48.584Z,12.60
2017-10-11T04:50:17.019Z,10.87
2017-10-11T04:52:45.650Z,12.77
2017-10-11T04:55:13.944Z,12.10
2017-10-11T04:57:43.032Z,11.57
2017-10-11T05:00:11.500Z,10.80
2017-10-11T05:02:40.191Z,11.77
2017-10-11T05:05:09.527Z,11.30
2017-10-11T05:07:38.489Z,11.60
2017-10-11T05:10:06.860Z,11.97
2017-10-11T05:12:35.583Z,11.60
2017-10-11T05:15:04.151Z,11.83
2017-10-11T05:17:32.683Z,9.97
2017-10-11T05:20:01.376Z,10.43
2017-10-11T05:22:30.699Z,11.60
2017-10-11T05:24:59.399Z,12.00
2017-10-11T05:27:27.907Z,11.57
2017-10-11T05:29:56.975Z,12.63
2017-10-11T05:32:25.661Z,10.43
2017-10-11T05:34:54.391Z,11.63
2017-10-11T05:37:23.255Z,11.80
2017-10-11T05:39:52.108Z,12.20
2017-10-11T05:42:20.852Z,11.37
2017-10-11T05:44:50.659Z,11.30
2017-10-11T05:47:19.211Z,10.20
2017-10-11T05:49:47.789Z,10.60
2017-10-11T05:52:17.433Z,12.67
2017-10-11T05:54:46.585Z,11.73
2017-10-11T05:57:15.418Z,12.30
2017-10-11T05:59:44.340Z,12.03
2017-10-11T06:02:13.470Z,11.80
2017-10-11T06:04:56.958Z,13.70
2017-10-11T06:07:26.947Z,11.03
2017-10-11T06:09:55.723Z,12.00
2017-10-11T06:12:24.291Z,11.27
2017-10-11T06:14:53.489Z,12.03
2017-10-11T06:17:22.278Z,10.93
2017-10-11T06:19:51.190Z,10.93
2017-10-11T06:22:20.387Z,11.73
2017-10-11T06:24:48.987Z,11.27
2017-10-11T06:27:17.325Z,12.27
2017-10-11T06:29:45.755Z,9.93
2017-10-11T06:32:14.171Z,11.37
2017-10-11T06:34:43.667Z,11.00
2017-10-11T06:37:12.607Z,11.77
2017-10-11T06:39:41.139Z,10.33
2017-10-11T06:42:10.316Z,11.50
2017-10-11T06:44:40.536Z,9.77
2017-10-11T06:47:08.935Z,9.97
2017-10-11T06:49:37.247Z,10.53
2017-10-11T06:52:05.560Z,8.90
2017-10-11T06:54:34.414Z,9.67
2017-10-11T06:57:02.883Z,9.30
2017-10-11T06:59:31.366Z,8.80
2017-10-11T07:02:00.359Z,7.40
2017-10-11T07:04:34.434Z,7.80
2017-10-11T07:07:03.443Z,7.30
2017-10-11T07:09:32.570Z,7.67
2017-10-11T07:12:01.223Z,8.03
2017-10-11T07:14:30.054Z,7.07
2017-10-11T07:16:58.536Z,9.17
2017-10-11T07:19:27.050Z,6.37
2017-10-11T07:21:55.711Z,6.83
2017-10-11T07:24:24.471Z,6.80
2017-10-11T07:26:53.536Z,8.00
2017-10-11T07:29:22.378Z,8.30
2017-10-11T07:31:51.239Z,8.40
2017-10-11T07:34:20.086Z,7.93
2017-10-11T07:36:48.757Z,8.77
2017-10-11T07:39:17.380Z,7.20
2017-10-11T07:41:46.215Z,7.80
2017-10-11T07:44:15.642Z,7.40
2017-10-11T07:46:44.551Z,6.87
2017-10-11T07:49:14.143Z,6.33
2017-10-11T07:51:42.859Z,5.57
2017-10-11T07:54:11.502Z,5.33
2017-10-11T07:56:40.444Z,5.57
2017-10-11T07:59:09.555Z,4.47
2017-10-11T08:01:38.892Z,4.70
2017-10-11T08:04:07.932Z,4.70
2017-10-11T08:06:36.805Z,3.80
2017-10-11T08:09:05.975Z,3.63
2017-10-11T08:11:34.841Z,3.10
2017-10-11T08:14:03.651Z,2.80
2017-10-11T08:16:32.291Z,2.70
2017-10-11T08:19:01.027Z,3.00
2017-10-11T08:21:29.916Z,3.00
2017-10-11T08:23:58.807Z,2.77
2017-10-11T08:26:27.360Z,2.53
2017-10-11T08:28:56.825Z,3.00
2017-10-11T08:31:25.700Z,3.00
2017-10-11T08:33:54.774Z,3.10
2017-10-11T08:36:23.628Z,2.20
2017-10-11T08:38:53.708Z,2.27
2017-10-11T08:41:22.394Z,2.47
2017-10-11T08:43:50.951Z,1.80
2017-10-11T08:46:19.387Z,2.10
2017-10-11T08:48:47.681Z,2.30
2017-10-11T08:51:17.306Z,1.80
2017-10-11T08:53:46.107Z,2.20
2017-10-11T08:56:15.015Z,2.10
2017-10-11T08:58:43.699Z,1.90
2017-10-11T09:01:12.663Z,1.67
2017-10-11T09:03:42.475Z,2.13
2017-10-11T09:06:11.176Z,1.93
2017-10-11T09:08:39.524Z,1.90
2017-10-11T09:11:08.993Z,2.00
2017-10-11T09:13:37.655Z,1.93
2017-10-11T09:16:06.751Z,1.33
2017-10-11T09:18:35.347Z,1.40
2017-10-11T09:21:04.295Z,1.40
2017-10-11T09:23:33.007Z,1.37
2017-10-11T09:26:02.387Z,1.80
2017-10-11T09:28:30.947Z,2.20
2017-10-11T09:31:00.132Z,2.13
2017-10-11T09:33:28.806Z,2.53
2017-10-11T09:35:57.291Z,3.20
2017-10-11T09:38:25.973Z,3.50
2017-10-11T09:40:54.429Z,4.37
2017-10-11T09:43:23.082Z,4.60
2017-10-11T09:45:52.691Z,4.80
2017-10-11T09:48:22.767Z,5.30
2017-10-11T09:50:51.486Z,6.27
2017-10-11T09:53:20.984Z,7.10
2017-10-11T09:55:50.471Z,5.87
2017-10-11T09:58:19.150Z,7.00
2017-10-11T10:00:47.771Z,7.10
2017-10-11T10:03:16.318Z,8.07
2017-10-11T10:05:45.071Z,7.73
2017-10-11T10:08:13.374Z,8.40
2017-10-11T10:10:41.935Z,8.53
2017-10-11T10:13:10.616Z,7.57
2017-10-11T10:15:39.084Z,7.07
2017-10-11T10:18:07.992Z,8.73
2017-10-11T10:20:37.046Z,8.00
2017-10-11T10:23:05.603Z,7.90
2017-10-11T10:25:34.040Z,7.70
2017-10-11T10:28:02.616Z,8.13
2017-10-11T10:30:31.675Z,7.37
2017-10-11T10:33:00.409Z,7.10
2017-10-11T10:35:28.807Z,8.23
2017-10-11T10:37:57.527Z,8.90
2017-10-11T10:40:26.083Z,8.33
2017-10-11T10:42:54.554Z,8.40
2017-10-11T10:45:22.964Z,9.50
2017-10-11T10:47:51.323Z,8.70
2017-10-11T10:50:20.024Z,10.33
2017-10-11T10:52:48.784Z,9.43
2017-10-11T10:55:17.177Z,9.93
2017-10-11T10:57:45.991Z,9.77
2017-10-11T11:00:14.443Z,10.37
2017-10-11T11:02:43.472Z,9.20
2017-10-11T11:05:12.122Z,10.30
2017-10-11T11:07:40.511Z,11.00
2017-10-11T11:10:08.813Z,11.53
2017-10-11T11:12:37.376Z,9.77
2017-10-11T11:15:05.771Z,11.00
2017-10-11T11:17:34.362Z,11.33
2017-10-11T11:20:03.199Z,8.50
2017-10-11T11:22:31.617Z,9.83
2017-10-11T11:24:59.936Z,10.50
2017-10-11T11:27:28.624Z,10.27
2017-10-11T11:29:58.319Z,11.30
2017-10-11T11:32:27.047Z,10.67
2017-10-11T11:34:55.671Z,9.30
2017-10-11T11:37:24.547Z,9.23
2017-10-11T11:39:52.895Z,9.70
2017-10-11T11:42:21.518Z,9.07
2017-10-11T11:44:50.191Z,9.27
2017-10-11T11:47:19.452Z,9.63
2017-10-11T11:49:47.974Z,9.73
2017-10-11T11:52:16.267Z,8.70
2017-10-11T11:54:44.955Z,8.63
2017-10-11T11:57:14.178Z,9.50
2017-10-11T11:59:42.559Z,8.77
2017-10-11T12:02:11.200Z,8.60
2017-10-11T12:04:40.127Z,9.67
2017-10-11T12:07:09.802Z,8.63
2017-10-11T12:09:38.296Z,7.40
2017-10-11T12:12:07.156Z,9.20
2017-10-11T12:14:35.819Z,7.13
2017-10-11T12:17:04.327Z,7.20
2017-10-11T12:19:33.246Z,7.60
2017-10-11T12:22:01.682Z,7.07
2017-10-11T12:24:30.460Z,7.80
2017-10-11T12:26:58.895Z,8.17
2017-10-11T12:29:27.343Z,8.33
2017-10-11T12:31:55.668Z,7.43
2017-10-11T12:34:24.234Z,7.20
2017-10-11T12:36:52.975Z,7.77
2017-10-11T12:39:21.699Z,7.03
2017-10-11T12:41:50.363Z,6.50
2017-10-11T12:44:19.464Z,6.53
2017-10-11T12:46:48.558Z,6.50
2017-10-11T12:49:17.071Z,7.47
2017-10-11T12:51:45.371Z,7.17
2017-10-11T12:54:13.934Z,7.77
2017-10-11T12:56:42.496Z,6.73
2017-10-11T12:59:10.970Z,7.47
2017-10-11T13:01:39.709Z,7.63
2017-10-11T13:04:09.324Z,7.00
2017-10-11T13:06:37.873Z,7.07
2017-10-11T13:09:06.705Z,7.13
2017-10-11T13:11:35.403Z,7.70
2017-10-11T13:14:03.942Z,7.17
2017-10-11T13:16:32.391Z,7.07
2017-10-11T13:19:01.269Z,6.97
2017-10-11T13:21:30.027Z,7.80
2017-10-11T13:23:59.542Z,6.73
2017-10-11T13:26:28.772Z,7.53
2017-10-11T13:28:57.119Z,7.40
2017-10-11T13:31:26.879Z,6.97
2017-10-11T13:33:55.276Z,7.23
2017-10-11T13:36:24.258Z,6.90
2017-10-11T13:38:53.019Z,7.37
2017-10-11T13:41:22.123Z,6.73
2017-10-11T13:43:50.432Z,6.80
2017-10-11T13:46:19.288Z,6.67
2017-10-11T13:48:47.804Z,6.87
2017-10-11T13:51:16.342Z,6.07
2017-10-11T13:53:45.015Z,6.93
2017-10-11T13:56:13.656Z,6.27
2017-10-11T13:58:42.337Z,6.80
2017-10-11T14:01:11.103Z,6.47
2017-10-11T14:03:39.409Z,5.60
2017-10-11T14:06:08.045Z,5.77
2017-10-11T14:08:36.864Z,5.53
2017-10-11T14:11:05.336Z,5.83
2017-10-11T14:13:33.670Z,5.60
2017-10-11T14:16:03.134Z,6.00
2017-10-11T14:18:31.688Z,5.60
2017-10-11T14:21:00.513Z,4.90
2017-10-11T14:23:29.403Z,4.60
2017-10-11T14:25:58.090Z,4.50
2017-10-11T14:28:27.589Z,3.90
2017-10-11T14:30:56.275Z,3.80
2017-10-11T14:33:24.880Z,3.80
2017-10-11T14:35:53.537Z,4.47
2017-10-11T14:38:22.094Z,4.50
2017-10-11T14:40:50.515Z,4.90
2017-10-11T14:43:19.684Z,3.70
2017-10-11T14:45:48.171Z,3.70
2017-10-11T14:48:16.675Z,4.50
2017-10-11T14:50:45.071Z,4.20
2017-10-11T14:53:14.016Z,3.97
2017-10-11T14:55:42.596Z,4.80
2017-10-11T14:58:10.971Z,4.00
2017-10-11T15:00:40.210Z,4.03
2017-10-11T15:03:09.011Z,3.10
2017-10-11T15:05:37.565Z,3.30
2017-10-11T15:08:06.021Z,3.23
2017-10-11T15:10:34.454Z,3.20
2017-10-11T15:13:02.951Z,3.27
2017-10-11T15:15:31.611Z,3.07
2017-10-11T15:18:01.740Z,2.10
2017-10-11T15:20:30.417Z,3.10
2017-10-11T15:22:59.074Z,2.33
2017-10-11T15:25:27.591Z,3.10
2017-10-11T15:27:56.283Z,2.70
2017-10-11T15:30:24.727Z,2.70
2017-10-11T15:32:53.110Z,2.50
2017-10-11T15:35:21.626Z,2.93
2017-10-11T15:37:50.476Z,2.10
2017-10-11T15:40:19.366Z,2.20
2017-10-11T15:42:48.111Z,2.23
2017-10-11T15:45:16.411Z,2.17
2017-10-11T15:47:45.626Z,2.17
2017-10-11T15:50:14.291Z,2.50
2017-10-11T15:52:43.215Z,2.67
2017-10-11T15:55:12.486Z,2.20
2017-10-11T15:57:41.563Z,1.93
2017-10-11T16:00:09.855Z,2.37
2017-10-11T16:02:38.563Z,1.90
2017-10-11T16:05:07.175Z,1.90
2017-10-11T16:07:36.059Z,2.07
2017-10-11T16:10:04.415Z,2.13
2017-10-11T16:12:33.136Z,2.10
2017-10-11T16:15:01.838Z,2.83
2017-10-11T16:17:30.480Z,2.50
2017-10-11T16:19:58.820Z,2.00
2017-10-11T16:22:28.450Z,2.23
2017-10-11T16:24:57.155Z,2.53
2017-10-11T16:27:25.647Z,2.70
2017-10-11T16:29:54.283Z,1.80
2017-10-11T16:32:23.331Z,1.97
2017-10-11T16:34:51.895Z,2.23
2017-10-11T16:37:20.522Z,2.10
2017-10-11T16:39:49.224Z,2.50
2017-10-11T16:42:18.171Z,2.13
2017-10-11T16:44:46.810Z,2.97
2017-10-11T16:47:15.326Z,2.70
2017-10-11T16:49:43.854Z,2.13
2017-10-11T16:52:13.166Z,2.63
2017-10-11T16:54:41.983Z,3.00
2017-10-11T16:57:10.921Z,2.43
2017-10-11T16:59:40.121Z,2.70
2017-10-11T17:02:08.994Z,2.57
2017-10-11T17:04:37.864Z,2.60
2017-10-11T17:07:07.158Z,2.30
2017-10-11T17:09:36.219Z,2.80
2017-10-11T17:12:05.294Z,3.50
2017-10-11T17:14:34.350Z,2.63
2017-10-11T17:17:02.863Z,3.10
2017-10-11T17:19:31.452Z,2.70
2017-10-11T17:22:00.243Z,3.30
2017-10-11T17:24:29.043Z,2.83
2017-10-11T17:26:57.611Z,2.80
2017-10-11T17:29:26.767Z,3.17
2017-10-11T17:31:55.469Z,2.90
2017-10-11T17:34:24.051Z,3.50
2017-10-11T17:36:52.984Z,3.77
2017-10-11T17:39:21.831Z,3.80
2017-10-11T17:41:51.352Z,3.70
2017-10-11T17:44:19.856Z,3.60
2017-10-11T17:46:48.761Z,3.80
2017-10-11T17:49:17.432Z,3.73
2017-10-11T17:51:46.323Z,3.77
2017-10-11T17:54:14.762Z,4.83
2017-10-11T17:56:43.802Z,4.33
2017-10-11T17:59:12.419Z,4.23
2017-10-11T18:01:41.170Z,4.13
2017-10-11T18:04:10.595Z,4.80
2017-10-11T18:06:39.158Z,4.73
2017-10-11T18:09:07.712Z,4.77
2017-10-11T18:11:36.535Z,4.50
2017-10-11T18:14:05.731Z,4.87
2017-10-11T18:16:34.515Z,4.67
2017-10-11T18:19:03.126Z,4.93
2017-10-11T18:21:31.991Z,4.33
2017-10-11T18:24:00.511Z,4.90
2017-10-11T18:26:29.842Z,5.27
2017-10-11T18:28:58.147Z,5.50
2017-10-11T18:31:26.661Z,4.80
2017-10-11T18:33:55.663Z,4.83
2017-10-11T18:36:24.924Z,5.03
2017-10-11T18:38:53.824Z,5.20
2017-10-11T18:41:22.635Z,5.60
2017-10-11T18:43:51.054Z,5.53
2017-10-11T18:46:19.950Z,5.37
2017-10-11T18:48:48.311Z,4.73
2017-10-11T18:51:16.731Z,5.40
2017-10-11T18:53:45.048Z,5.50
2017-10-11T18:56:13.690Z,5.37
2017-10-11T18:58:42.289Z,5.50
2017-10-11T19:01:11.459Z,4.67
2017-10-11T19:03:40.231Z,5.93
2017-10-11T19:06:09.795Z,5.20
2017-10-11T19:08:38.242Z,5.40
2017-10-11T19:11:06.568Z,4.90
2017-10-11T19:13:36.423Z,5.70
2017-10-11T19:16:05.132Z,4.33
2017-10-11T19:18:33.487Z,5.50
2017-10-11T19:21:02.202Z,4.10
2017-10-11T19:23:31.047Z,4.37
2017-10-11T19:25:59.535Z,5.03
2017-10-11T19:28:28.346Z,4.80
2017-10-11T19:30:57.386Z,4.50
2017-10-11T19:33:25.665Z,4.87
2017-10-11T19:35:54.423Z,5.10
2017-10-11T19:38:22.748Z,4.87
2017-10-11T19:40:52.715Z,5.07
2017-10-11T19:43:21.202Z,4.23
2017-10-11T19:45:50.115Z,4.20
2017-10-11T19:48:19.076Z,4.43
2017-10-11T19:50:47.687Z,3.90
2017-10-11T19:53:16.806Z,4.50
2017-10-11T19:55:46.244Z,3.80
2017-10-11T19:58:15.011Z,3.60
2017-10-11T20:00:44.244Z,3.50
2017-10-11T20:03:12.832Z,4.10
2017-10-11T20:05:41.735Z,4.33
2017-10-11T20:08:10.399Z,3.73
2017-10-11T20:10:38.803Z,4.20
2017-10-11T20:13:07.777Z,3.53
2017-10-11T20:15:36.107Z,4.07
2017-10-11T20:18:04.739Z,3.30
2017-10-11T20:20:34.424Z,4.10
2017-10-11T20:23:03.009Z,3.20
2017-10-11T20:25:31.820Z,3.60
2017-10-11T20:28:00.835Z,3.87
2017-10-11T20:30:29.914Z,3.40
2017-10-11T20:32:58.570Z,4.13
2017-10-11T20:35:27.600Z,3.40
2017-10-11T20:37:56.894Z,3.80
2017-10-11T20:40:25.983Z,3.93
2017-10-11T20:42:54.980Z,3.67
2017-10-11T20:45:24.309Z,3.67
2017-10-11T20:47:53.226Z,3.57
2017-10-11T20:50:22.722Z,3.60
2017-10-11T20:52:51.958Z,4.67
2017-10-11T20:55:21.243Z,4.20
2017-10-11T20:57:49.956Z,3.70
2017-10-11T21:00:18.345Z,3.83
2017-10-11T21:02:47.165Z,4.10
2017-10-11T21:05:16.254Z,3.80
2017-10-11T21:07:44.986Z,3.53
2017-10-11T21:10:13.319Z,3.93
2017-10-11T21:12:42.296Z,4.40
2017-10-11T21:15:11.188Z,4.03
2017-10-11T21:17:40.290Z,3.80
2017-10-11T21:20:08.976Z,2.90
2017-10-11T21:22:37.437Z,3.97
2017-10-11T21:25:06.773Z,3.40
2017-10-11T21:27:35.205Z,3.97
2017-10-11T21:30:04.680Z,3.40
2017-10-11T21:32:33.259Z,3.40
2017-10-11T21:35:01.765Z,3.50
2017-10-11T21:37:30.376Z,2.93
2017-10-11T21:40:00.855Z,4.10
2017-10-11T21:42:30.487Z,3.50
2017-10-11T21:44:59.139Z,3.77
2017-10-11T21:47:27.511Z,3.63
2017-10-11T21:49:56.199Z,3.43
2017-10-11T21:52:26.575Z,4.27
2017-10-11T21:54:55.587Z,2.60
2017-10-11T21:57:23.963Z,3.43
2017-10-11T21:59:52.919Z,4.13
2017-10-11T22:02:21.459Z,4.50
2017-10-11T22:04:49.834Z,4.27
2017-10-11T22:07:18.696Z,4.10
2017-10-11T22:09:47.334Z,3.83
2017-10-11T22:12:16.091Z,4.23
2017-10-11T22:14:44.792Z,4.00
2017-10-11T22:17:13.895Z,3.87
2017-10-11T22:19:43.361Z,5.40
2017-10-11T22:22:12.232Z,4.70
2017-10-11T22:24:41.979Z,4.87
2017-10-11T22:27:10.847Z,4.63
2017-10-11T22:29:40.153Z,4.80
2017-10-11T22:32:08.803Z,4.87
2017-10-11T22:34:37.127Z,5.20
2017-10-11T22:37:05.811Z,5.77
2017-10-11T22:39:34.835Z,5.30
2017-10-11T22:42:03.614Z,5.70
2017-10-11T22:44:32.470Z,5.40
2017-10-11T22:47:01.201Z,5.87
2017-10-11T22:49:30.054Z,6.03
2017-10-11T22:51:58.862Z,5.83
2017-10-11T22:54:28.040Z,5.60
2017-10-11T22:56:56.679Z,5.87
2017-10-11T22:59:25.135Z,6.00
2017-10-11T23:01:54.561Z,5.30
2017-10-11T23:04:23.096Z,6.10
2017-10-11T23:06:51.683Z,6.80
2017-10-11T23:09:20.542Z,7.70
2017-10-11T23:11:48.847Z,6.70
2017-10-11T23:14:17.507Z,7.10
2017-10-11T23:16:46.652Z,6.80
2017-10-11T23:19:15.920Z,7.03
2017-10-11T23:21:45.027Z,6.40
2017-10-11T23:24:13.711Z,7.07
2017-10-11T23:26:42.367Z,6.13
2017-10-11T23:29:11.699Z,6.60
2017-10-11T23:31:40.147Z,6.40
2017-10-11T23:34:08.626Z,6.00
2017-10-11T23:36:37.495Z,6.53
2017-10-11T23:39:06.846Z,7.40
2017-10-11T23:41:36.015Z,7.10
2017-10-11T23:44:05.414Z,6.00
2017-10-11T23:46:33.927Z,6.43
2017-10-11T23:49:02.736Z,6.40
2017-10-11T23:51:31.304Z,6.90
2017-10-11T23:53:59.751Z,6.40
2017-10-11T23:56:28.254Z,6.33
2017-10-11T23:58:56.761Z,6.77
